| time (UTC) | temp C | wind direction | speed KPH | gust KPH | rain 1hr cm | rain 24hr cm | rain mn cm | humidity % | barometer mb |
| 20260906103505 | 30 | 101 | 11.3 | 20.9 | 0.00 | 0.00 | 0.00 | 60 | 1021.7 |
| 20260906103005 | 30 | 94 | 11.3 | 20.9 | 0.00 | 0.00 | 0.00 | 61 | 1021.7 |
| 20260906102505 | 30 | 77 | 12.9 | 20.9 | 0.00 | 0.00 | 0.00 | 60 | 1021.8 |
| 20260906102005 | 30 | 74 | 12.9 | 19.3 | 0.00 | 0.00 | 0.00 | 59 | 1021.8 |
| 20260906101506 | 30 | 77 | 12.9 | 19.3 | 0.00 | 0.00 | 0.00 | 60 | 1021.9 |
| 20260906101005 | 30 | 70 | 14.5 | 19.3 | 0.00 | 0.00 | 0.00 | 60 | 1021.9 |
| 20260906095505 | 30 | 80 | 14.5 | 24.1 | 0.00 | 0.00 | 0.00 | 60 | 1022.0 |
| 20260906095006 | 30 | 76 | 14.5 | 24.1 | 0.00 | 0.00 | 0.00 | 62 | 1022.1 |
| 20260906094506 | 30 | 67 | 16.1 | 24.1 | 0.00 | 0.00 | 0.00 | 59 | 1022.1 |
| 20260906094005 | 30 | 70 | 16.1 | 22.5 | 0.00 | 0.00 | 0.00 | 59 | 1022.1 |
| 20260906093505 | 30 | 72 | 14.5 | 22.5 | 0.00 | 0.00 | 0.00 | 60 | 1022.1 |
| 20260906093006 | 30 | 70 | 16.1 | 20.9 | 0.00 | 0.00 | 0.00 | 61 | 1022.2 |
| 20260906092506 | 30 | 69 | 16.1 | 22.5 | 0.00 | 0.00 | 0.00 | 62 | 1022.2 |
| 20260906092005 | 30 | 68 | 16.1 | 22.5 | 0.00 | 0.00 | 0.00 | 62 | 1022.2 |
| 20260906091505 | 29 | 70 | 16.1 | 22.5 | 0.00 | 0.00 | 0.00 | 61 | 1022.2 |
| 20260906091005 | 29 | 67 | 16.1 | 22.5 | 0.00 | 0.00 | 0.00 | 61 | 1022.3 |
| 20260906090505 | 29 | 62 | 16.1 | 22.5 | 0.00 | 0.00 | 0.00 | 62 | 1022.2 |
| 20260906090006 | 29 | 68 | 16.1 | 22.5 | 0.00 | 0.00 | 0.00 | 61 | 1022.2 |
| 20260906085005 | 29 | 68 | 19.3 | 27.4 | 0.00 | 0.00 | 0.00 | 61 | 1022.2 |
| 20260906084505 | 29 | 61 | 19.3 | 27.4 | 0.00 | 0.00 | 0.00 | 59 | 1022.2 |
| 20260906084005 | 29 | 64 | 17.7 | 22.5 | 0.00 | 0.00 | 0.00 | 58 | 1022.1 |
| 20260906083005 | 29 | 67 | 20.9 | 25.7 | 0.00 | 0.00 | 0.00 | 58 | 1022.1 |
| 20260906082505 | 29 | 73 | 19.3 | 25.7 | 0.00 | 0.00 | 0.00 | 58 | 1022.1 |
| 20260906082005 | 29 | 64 | 17.7 | 25.7 | 0.00 | 0.00 | 0.00 | 57 | 1022.0 |
| 20260906080505 | 28 | 69 | 19.3 | 24.1 | 0.00 | 0.00 | 0.00 | 58 | 1022.0 |
| 20260906080006 | 28 | 67 | 19.3 | 24.1 | 0.00 | 0.00 | 0.00 | 59 | 1022.0 |
| 20260906074505 | 27 | 75 | 20.9 | 32.2 | 0.00 | 0.00 | 0.00 | 60 | 1022.1 |
| 20260906074006 | 27 | 78 | 19.3 | 32.2 | 0.00 | 0.00 | 0.00 | 59 | 1021.8 |
| 20260906073506 | 27 | 75 | 19.3 | 29.0 | 0.00 | 0.00 | 0.00 | 59 | 1021.9 |
| 20260906073005 | 27 | 65 | 19.3 | 25.7 | 0.00 | 0.00 | 0.00 | 60 | 1021.9 |
| 20260906071505 | 27 | 68 | 17.7 | 30.6 | 0.00 | 0.00 | 0.00 | 61 | 1021.7 |
| 20260906070506 | 27 | 69 | 19.3 | 27.4 | 0.00 | 0.00 | 0.00 | 62 | 1021.7 |
| 20260906065005 | 26 | 68 | 16.1 | 25.7 | 0.00 | 0.00 | 0.00 | 64 | 1021.5 |
| 20260906064505 | 26 | 73 | 12.9 | 19.3 | 0.00 | 0.00 | 0.00 | 66 | 1021.4 |
| 20260906064006 | 26 | 77 | 12.9 | 19.3 | 0.00 | 0.00 | 0.00 | 67 | 1021.5 |
| 20260906063505 | 26 | 83 | 12.9 | 17.7 | 0.00 | 0.00 | 0.00 | 69 | 1021.4 |
| 20260906063006 | 25 | 87 | 11.3 | 16.1 | 0.00 | 0.00 | 0.00 | 71 | 1021.5 |
| 20260906062505 | 25 | 85 | 9.7 | 16.1 | 0.00 | 0.00 | 0.00 | 72 | 1021.4 |
| 20260906061005 | 25 | 130 | 0.0 | 4.8 | 0.00 | 0.00 | 0.00 | 75 | 1021.4 |
| 20260906060505 | 25 | 0 | 0.0 | 0.0 | 0.00 | 0.00 | 0.00 | 76 | 1021.3 |
| 20260906055506 | 24 | 159 | 0.0 | 1.6 | 0.00 | 0.00 | 0.00 | 76 | 1021.1 |
| 20260906054505 | 23 | 132 | 1.6 | 4.8 | 0.00 | 0.00 | 0.00 | 79 | 1021.0 |
| 20260906054006 | 23 | 120 | 3.2 | 6.4 | 0.00 | 0.00 | 0.00 | 79 | 1021.0 |
| 20260906053005 | 23 | 103 | 3.2 | 8.0 | 0.00 | 0.00 | 0.00 | 80 | 1020.7 |
| 20260906052005 | 22 | 88 | 3.2 | 6.4 | 0.00 | 0.00 | 0.00 | 81 | 1020.5 |
| 20260906051506 | 22 | 77 | 4.8 | 6.4 | 0.00 | 0.00 | 0.00 | 82 | 1020.5 |
| 20260906050505 | 22 | 58 | 4.8 | 8.0 | 0.00 | 0.00 | 0.00 | 82 | 1020.3 |
| 20260906050006 | 22 | 55 | 4.8 | 6.4 | 0.00 | 0.00 | 0.00 | 82 | 1020.3 |
| 20260906045506 | 22 | 57 | 4.8 | 6.4 | 0.00 | 0.00 | 0.00 | 83 | 1020.3 |
| 20260906045006 | 22 | 60 | 4.8 | 6.4 | 0.00 | 0.00 | 0.00 | 82 | 1020.2 |
| 20260906044505 | 22 | 62 | 6.4 | 8.0 | 0.00 | 0.00 | 0.00 | 83 | 1020.2 |
| 20260906044005 | 22 | 58 | 6.4 | 8.0 | 0.00 | 0.00 | 0.00 | 83 | 1020.2 |
| 20260906043506 | 22 | 54 | 6.4 | 9.7 | 0.00 | 0.00 | 0.00 | 83 | 1020.1 |
| 20260906043006 | 22 | 53 | 6.4 | 9.7 | 0.00 | 0.00 | 0.00 | 83 | 1020.0 |
| 20260906042505 | 22 | 51 | 6.4 | 9.7 | 0.00 | 0.00 | 0.00 | 84 | 1019.9 |
| 20260906042006 | 22 | 51 | 6.4 | 8.0 | 0.00 | 0.00 | 0.00 | 84 | 1020.0 |
| 20260906041505 | 22 | 51 | 6.4 | 9.7 | 0.00 | 0.00 | 0.00 | 84 | 1019.9 |
| 20260906040506 | 22 | 45 | 6.4 | 9.7 | 0.00 | 0.00 | 0.00 | 85 | 1019.9 |
| 20260906040005 | 22 | 44 | 6.4 | 9.7 | 0.00 | 0.00 | 0.00 | 85 | 1019.8 |
| 20260906035505 | 22 | 47 | 6.4 | 8.0 | 0.00 | 0.00 | 0.00 | 85 | 1019.7 |
| 20260906035006 | 22 | 52 | 6.4 | 8.0 | 0.00 | 0.00 | 0.00 | 85 | 1019.7 |
| 20260906034506 | 22 | 53 | 6.4 | 8.0 | 0.00 | 0.00 | 0.00 | 85 | 1019.7 |
| 20260906034006 | 22 | 53 | 6.4 | 8.0 | 0.00 | 0.00 | 0.00 | 85 | 1019.7 |
| 20260906033505 | 22 | 58 | 6.4 | 6.4 | 0.00 | 0.00 | 0.00 | 85 | 1019.7 |
| 20260906033006 | 22 | 67 | 6.4 | 6.4 | 0.00 | 0.00 | 0.00 | 85 | 1019.6 |
| 20260906032005 | 23 | 75 | 3.2 | 4.8 | 0.00 | 0.00 | 0.00 | 85 | 1019.6 |
| 20260906031505 | 23 | 76 | 3.2 | 6.4 | 0.00 | 0.00 | 0.00 | 84 | 1019.5 |
| 20260906031005 | 23 | 76 | 3.2 | 6.4 | 0.00 | 0.00 | 0.00 | 84 | 1019.5 |
| 20260906030506 | 23 | 81 | 4.8 | 6.4 | 0.00 | 0.00 | 0.00 | 84 | 1019.6 |
| 20260906025505 | 23 | 87 | 6.4 | 8.0 | 0.00 | 0.00 | 0.00 | 83 | 1019.5 |
| 20260906025005 | 23 | 70 | 6.4 | 9.7 | 0.00 | 0.00 | 0.00 | 82 | 1019.4 |
| 20260906024505 | 24 | 51 | 8.0 | 12.9 | 0.00 | 0.00 | 0.00 | 82 | 1019.4 |
| 20260906024005 | 24 | 46 | 9.7 | 14.5 | 0.00 | 0.00 | 0.00 | 81 | 1019.4 |
| 20260906023505 | 24 | 44 | 9.7 | 14.5 | 0.00 | 0.00 | 0.00 | 81 | 1019.4 |
| 20260906023005 | 24 | 44 | 9.7 | 14.5 | 0.00 | 0.00 | 0.00 | 81 | 1019.5 |
| 20260906022505 | 24 | 48 | 11.3 | 16.1 | 0.00 | 0.00 | 0.00 | 80 | 1019.4 |
| 20260906022005 | 24 | 51 | 12.9 | 19.3 | 0.00 | 0.00 | 0.00 | 80 | 1019.4 |
| 20260906021506 | 25 | 50 | 11.3 | 19.3 | 0.00 | 0.00 | 0.00 | 80 | 1019.4 |
| 20260906021005 | 25 | 47 | 11.3 | 17.7 | 0.00 | 0.00 | 0.00 | 79 | 1019.4 |
| 20260906020505 | 25 | 45 | 11.3 | 19.3 | 0.00 | 0.00 | 0.00 | 79 | 1019.3 |
| 20260906020005 | 25 | 43 | 11.3 | 19.3 | 0.00 | 0.00 | 0.00 | 79 | 1019.3 |
| 20260906015005 | 25 | 41 | 11.3 | 16.1 | 0.00 | 0.00 | 0.00 | 80 | 1019.1 |
| 20260906014505 | 25 | 45 | 12.9 | 19.3 | 0.00 | 0.00 | 0.00 | 81 | 1019.1 |
| 20260906014005 | 25 | 48 | 12.9 | 19.3 | 0.00 | 0.00 | 0.00 | 81 | 1019.2 |
| 20260906013505 | 25 | 48 | 12.9 | 17.7 | 0.00 | 0.00 | 0.00 | 82 | 1019.1 |
| 20260906012505 | 25 | 46 | 11.3 | 17.7 | 0.00 | 0.00 | 0.00 | 82 | 1019.2 |
| 20260906012005 | 25 | 44 | 12.9 | 19.3 | 0.00 | 0.00 | 0.00 | 82 | 1019.1 |
| 20260906011004 | 25 | 45 | 9.7 | 17.7 | 0.00 | 0.00 | 0.00 | 82 | 1019.1 |
| 20260906010506 | 25 | 45 | 9.7 | 14.5 | 0.00 | 0.00 | 0.00 | 82 | 1019.1 |
| 20260906010005 | 25 | 46 | 9.7 | 16.1 | 0.00 | 0.00 | 0.00 | 82 | 1019.0 |
| 20260906005505 | 25 | 47 | 9.7 | 16.1 | 0.00 | 0.00 | 0.00 | 82 | 1019.0 |
| 20260906005006 | 25 | 48 | 9.7 | 14.5 | 0.00 | 0.00 | 0.00 | 82 | 1019.0 |
| 20260906004506 | 25 | 46 | 9.7 | 14.5 | 0.00 | 0.00 | 0.00 | 82 | 1019.0 |
| 20260906004005 | 25 | 45 | 9.7 | 14.5 | 0.00 | 0.00 | 0.00 | 82 | 1019.1 |
| 20260906003505 | 25 | 47 | 9.7 | 16.1 | 0.00 | 0.00 | 0.00 | 82 | 1019.0 |
| 20260906003005 | 25 | 47 | 9.7 | 16.1 | 0.00 | 0.00 | 0.00 | 82 | 1019.0 |
| 20260906002505 | 25 | 46 | 11.3 | 17.7 | 0.00 | 0.00 | 0.00 | 82 | 1018.9 |
| 20260906002006 | 25 | 45 | 11.3 | 17.7 | 0.00 | 0.00 | 0.00 | 83 | 1018.9 |
| 20260906001505 | 25 | 46 | 9.7 | 14.5 | 0.00 | 0.00 | 0.00 | 83 | 1018.9 |
| 20260906001005 | 25 | 47 | 9.7 | 14.5 | 0.00 | 0.00 | 0.00 | 83 | 1019.0 |
| 20260906000505 | 25 | 46 | 9.7 | 14.5 | 0.00 | 0.00 | 0.00 | 83 | 1018.9 |
| 20260906000006 | 25 | 43 | 8.0 | 14.5 | 0.00 | 0.00 | 0.00 | 83 | 1019.1 |
| 20260905235505 | 25 | 42 | 8.0 | 12.9 | 0.00 | 0.00 | 0.00 | 84 | 1019.1 |
| 20260905235005 | 25 | 44 | 8.0 | 12.9 | 0.00 | 0.00 | 0.00 | 84 | 1019.1 |
| 20260905234505 | 25 | 46 | 8.0 | 12.9 | 0.00 | 0.00 | 0.00 | 84 | 1019.1 |
| 20260905233505 | 25 | 48 | 8.0 | 12.9 | 0.00 | 0.00 | 0.00 | 83 | 1019.0 |
| 20260905233005 | 25 | 42 | 6.4 | 11.3 | 0.00 | 0.00 | 0.00 | 83 | 1019.0 |
| 20260905232505 | 25 | 38 | 6.4 | 12.9 | 0.00 | 0.00 | 0.00 | 83 | 1018.9 |
| 20260905232005 | 25 | 39 | 6.4 | 12.9 | 0.00 | 0.00 | 0.00 | 83 | 1018.9 |
| 20260905231505 | 25 | 41 | 8.0 | 12.9 | 0.00 | 0.00 | 0.00 | 83 | 1018.9 |
| 20260905231005 | 25 | 43 | 8.0 | 12.9 | 0.00 | 0.00 | 0.00 | 83 | 1018.9 |
| 20260905230506 | 25 | 43 | 6.4 | 11.3 | 0.00 | 0.00 | 0.00 | 82 | 1018.9 |
| 20260905230006 | 25 | 42 | 6.4 | 11.3 | 0.00 | 0.00 | 0.00 | 82 | 1018.9 |
| 20260905225505 | 25 | 51 | 6.4 | 9.7 | 0.00 | 0.00 | 0.00 | 81 | 1018.8 |
| 20260905224506 | 25 | 57 | 8.0 | 12.9 | 0.00 | 0.00 | 0.00 | 82 | 1018.7 |
| 20260905224005 | 25 | 56 | 8.0 | 9.7 | 0.00 | 0.00 | 0.00 | 82 | 1018.7 |
| 20260905223505 | 25 | 56 | 6.4 | 9.7 | 0.00 | 0.00 | 0.00 | 83 | 1018.6 |
| 20260905223006 | 25 | 53 | 6.4 | 8.0 | 0.00 | 0.00 | 0.00 | 83 | 1018.5 |
| 20260905222505 | 25 | 50 | 6.4 | 8.0 | 0.00 | 0.00 | 0.00 | 83 | 1018.7 |
| 20260905222005 | 25 | 53 | 6.4 | 9.7 | 0.00 | 0.00 | 0.00 | 83 | 1018.6 |
| 20260905221005 | 25 | 45 | 6.4 | 9.7 | 0.00 | 0.00 | 0.00 | 82 | 1018.5 |
| 20260905220505 | 25 | 50 | 8.0 | 12.9 | 0.00 | 0.00 | 0.00 | 82 | 1018.5 |
| 20260905215506 | 25 | 64 | 8.0 | 9.7 | 0.00 | 0.00 | 0.00 | 82 | 1018.4 |
| 20260905215005 | 25 | 61 | 8.0 | 12.9 | 0.00 | 0.00 | 0.00 | 82 | 1018.3 |
| 20260905214505 | 25 | 61 | 8.0 | 12.9 | 0.00 | 0.00 | 0.00 | 82 | 1018.2 |
| 20260905213505 | 25 | 68 | 8.0 | 12.9 | 0.00 | 0.00 | 0.00 | 83 | 1018.1 |
| 20260905213006 | 25 | 70 | 8.0 | 12.9 | 0.00 | 0.00 | 0.00 | 83 | 1018.1 |
| 20260905212005 | 24 | 85 | 6.4 | 9.7 | 0.00 | 0.00 | 0.00 | 84 | 1017.8 |
| 20260905211505 | 24 | 89 | 6.4 | 11.3 | 0.00 | 0.00 | 0.00 | 84 | 1017.8 |
| 20260905205506 | 25 | 87 | 6.4 | 9.7 | 0.00 | 0.00 | 0.00 | 81 | 1017.7 |
| 20260905205006 | 25 | 98 | 8.0 | 9.7 | 0.00 | 0.00 | 0.00 | 82 | 1017.7 |
| 20260905204505 | 25 | 103 | 8.0 | 11.3 | 0.00 | 0.00 | 0.00 | 82 | 1017.6 |
| 20260905204005 | 25 | 100 | 9.7 | 12.9 | 0.00 | 0.00 | 0.00 | 81 | 1017.6 |
| 20260905203505 | 25 | 98 | 9.7 | 12.9 | 0.00 | 0.00 | 0.00 | 81 | 1017.5 |
| 20260905203005 | 25 | 100 | 8.0 | 11.3 | 0.00 | 0.00 | 0.00 | 80 | 1017.4 |
| 20260905202506 | 25 | 102 | 8.0 | 11.3 | 0.00 | 0.00 | 0.00 | 79 | 1017.5 |
| 20260905202006 | 25 | 97 | 8.0 | 11.3 | 0.00 | 0.00 | 0.00 | 77 | 1017.5 |
| 20260905201505 | 25 | 97 | 6.4 | 11.3 | 0.00 | 0.00 | 0.00 | 76 | 1017.5 |
| 20260905200505 | 25 | 95 | 9.7 | 14.5 | 0.00 | 0.00 | 0.00 | 74 | 1017.3 |
| 20260905200006 | 25 | 101 | 9.7 | 14.5 | 0.00 | 0.00 | 0.00 | 74 | 1017.2 |
| 20260905195506 | 25 | 100 | 9.7 | 12.9 | 0.00 | 0.00 | 0.00 | 74 | 1017.1 |
| 20260905195005 | 25 | 96 | 9.7 | 12.9 | 0.00 | 0.00 | 0.00 | 73 | 1017.0 |
| 20260905194505 | 26 | 93 | 9.7 | 12.9 | 0.00 | 0.00 | 0.00 | 73 | 1016.9 |
| 20260905194006 | 26 | 89 | 9.7 | 12.9 | 0.00 | 0.00 | 0.00 | 72 | 1016.8 |
| 20260905193506 | 26 | 90 | 8.0 | 12.9 | 0.00 | 0.00 | 0.00 | 71 | 1016.8 |
| 20260905193005 | 26 | 90 | 6.4 | 12.9 | 0.00 | 0.00 | 0.00 | 70 | 1016.7 |
| 20260905192505 | 27 | 83 | 6.4 | 8.0 | 0.00 | 0.00 | 0.00 | 70 | 1016.6 |
| 20260905191505 | 27 | 74 | 4.8 | 8.0 | 0.00 | 0.00 | 0.00 | 68 | 1016.5 |
| 20260905190506 | 27 | 75 | 3.2 | 6.4 | 0.00 | 0.00 | 0.00 | 65 | 1016.5 |
| 20260905190006 | 27 | 88 | 3.2 | 4.8 | 0.00 | 0.00 | 0.00 | 65 | 1016.5 |
| 20260905185505 | 28 | 90 | 1.6 | 3.2 | 0.00 | 0.00 | 0.00 | 65 | 1016.3 |
| 20260905185005 | 28 | 90 | 1.6 | 4.8 | 0.00 | 0.00 | 0.00 | 65 | 1016.4 |
| 20260905184505 | 28 | 90 | 1.6 | 4.8 | 0.00 | 0.00 | 0.00 | 64 | 1016.2 |
| 20260905184006 | 28 | 90 | 1.6 | 3.2 | 0.00 | 0.00 | 0.00 | 64 | 1016.1 |
| 20260905183506 | 28 | 90 | 3.2 | 4.8 | 0.00 | 0.00 | 0.00 | 64 | 1016.0 |
| 20260905183006 | 29 | 90 | 3.2 | 4.8 | 0.00 | 0.00 | 0.00 | 64 | 1015.9 |
| 20260905182505 | 29 | 91 | 3.2 | 4.8 | 0.00 | 0.00 | 0.00 | 62 | 1015.9 |
| 20260905182005 | 29 | 91 | 3.2 | 4.8 | 0.00 | 0.00 | 0.00 | 62 | 1015.7 |
| 20260905181505 | 29 | 86 | 3.2 | 4.8 | 0.00 | 0.00 | 0.00 | 62 | 1015.8 |
| 20260905181005 | 29 | 79 | 3.2 | 4.8 | 0.00 | 0.00 | 0.00 | 61 | 1015.7 |
| 20260905180506 | 30 | 65 | 3.2 | 4.8 | 0.00 | 0.00 | 0.00 | 61 | 1015.7 |
| 20260905180006 | 30 | 50 | 1.6 | 4.8 | 0.00 | 0.00 | 0.00 | 60 | 1015.6 |
| 20260905175505 | 30 | 21 | 0.0 | 4.8 | 0.00 | 0.00 | 0.00 | 59 | 1015.5 |
| 20260905175005 | 30 | 0 | 0.0 | 0.0 | 0.00 | 0.00 | 0.00 | 58 | 1015.5 |
| 20260905174505 | 30 | 0 | 0.0 | 0.0 | 0.00 | 0.00 | 0.00 | 57 | 1015.4 |
| 20260905174005 | 31 | 0 | 0.0 | 0.0 | 0.00 | 0.00 | 0.00 | 57 | 1015.4 |
| 20260905173506 | 31 | 0 | 0.0 | 0.0 | 0.00 | 0.00 | 0.00 | 57 | 1015.3 |
| 20260905173006 | 31 | 0 | 0.0 | 0.0 | 0.00 | 0.00 | 0.00 | 55 | 1015.3 |
| 20260905172505 | 31 | 0 | 0.0 | 0.0 | 0.00 | 0.00 | 0.00 | 54 | 1015.4 |
| 20260905172005 | 31 | 0 | 0.0 | 0.0 | 0.00 | 0.00 | 0.00 | 56 | 1015.3 |
| 20260905171505 | 31 | 0 | 0.0 | 0.0 | 0.00 | 0.00 | 0.00 | 54 | 1015.3 |
| 20260905171005 | 32 | 0 | 0.0 | 0.0 | 0.00 | 0.00 | 0.00 | 54 | 1015.3 |
| 20260905170006 | 32 | 0 | 0.0 | 0.0 | 0.00 | 0.00 | 0.00 | 53 | 1015.3 |
| 20260905165006 | 33 | 262 | 0.0 | 3.2 | 0.00 | 0.00 | 0.00 | 50 | 1015.2 |
| 20260905164505 | 33 | 262 | 0.0 | 3.2 | 0.00 | 0.00 | 0.00 | 51 | 1015.2 |
| 20260905164005 | 33 | 262 | 0.0 | 3.2 | 0.00 | 0.00 | 0.00 | 50 | 1015.1 |
| 20260905163505 | 34 | 0 | 0.0 | 0.0 | 0.00 | 0.00 | 0.00 | 51 | 1015.1 |
| 20260905162505 | 35 | 256 | 1.6 | 4.8 | 0.00 | 0.00 | 0.00 | 46 | 1015.0 |
| 20260905161506 | 35 | 259 | 1.6 | 6.4 | 0.00 | 0.00 | 0.00 | 47 | 1015.0 |
| 20260905161005 | 35 | 254 | 1.6 | 6.4 | 0.00 | 0.00 | 0.00 | 48 | 1015.0 |
| 20260905160505 | 35 | 254 | 1.6 | 6.4 | 0.00 | 0.00 | 0.00 | 47 | 1015.0 |
| 20260905160005 | 35 | 260 | 1.6 | 6.4 | 0.00 | 0.00 | 0.00 | 46 | 1015.0 |
| 20260905155505 | 35 | 260 | 1.6 | 4.8 | 0.00 | 0.00 | 0.00 | 47 | 1015.0 |
| 20260905155005 | 35 | 259 | 3.2 | 4.8 | 0.00 | 0.00 | 0.00 | 47 | 1015.0 |
| 20260905154006 | 35 | 258 | 3.2 | 9.7 | 0.00 | 0.00 | 0.00 | 46 | 1014.9 |
| 20260905153006 | 35 | 247 | 4.8 | 9.7 | 0.00 | 0.00 | 0.00 | 47 | 1014.8 |
| 20260905152505 | 35 | 247 | 3.2 | 9.7 | 0.00 | 0.00 | 0.00 | 46 | 1014.8 |
| 20260905152005 | 35 | 258 | 3.2 | 6.4 | 0.00 | 0.00 | 0.00 | 47 | 1014.9 |
| 20260905151506 | 35 | 255 | 3.2 | 8.0 | 0.00 | 0.00 | 0.00 | 45 | 1014.9 |
| 20260905151006 | 35 | 238 | 3.2 | 8.0 | 0.00 | 0.00 | 0.00 | 46 | 1015.0 |
| 20260905150505 | 35 | 251 | 4.8 | 8.0 | 0.00 | 0.00 | 0.00 | 46 | 1014.9 |
| 20260905150005 | 35 | 250 | 4.8 | 9.7 | 0.00 | 0.00 | 0.00 | 47 | 1015.0 |
| 20260905145505 | 35 | 240 | 4.8 | 11.3 | 0.00 | 0.00 | 0.00 | 45 | 1014.9 |
| 20260905145005 | 35 | 246 | 4.8 | 11.3 | 0.00 | 0.00 | 0.00 | 46 | 1015.0 |
| 20260905144505 | 35 | 251 | 4.8 | 14.5 | 0.00 | 0.00 | 0.00 | 45 | 1015.1 |
| 20260905144005 | 35 | 249 | 4.8 | 14.5 | 0.00 | 0.00 | 0.00 | 45 | 1015.0 |
| 20260905143005 | 35 | 247 | 6.4 | 12.9 | 0.00 | 0.00 | 0.00 | 45 | 1015.1 |
| 20260905142506 | 34 | 252 | 4.8 | 12.9 | 0.00 | 0.00 | 0.00 | 46 | 1015.2 |
| 20260905142005 | 35 | 253 | 4.8 | 12.9 | 0.00 | 0.00 | 0.00 | 48 | 1015.2 |
| 20260905141505 | 35 | 248 | 4.8 | 8.0 | 0.00 | 0.00 | 0.00 | 48 | 1015.2 |
| 20260905140505 | 34 | 257 | 4.8 | 9.7 | 0.00 | 0.00 | 0.00 | 47 | 1015.4 |
| 20260905134506 | 33 | 254 | 6.4 | 14.5 | 0.00 | 0.00 | 0.00 | 46 | 1015.5 |
| 20260905134005 | 34 | 252 | 4.8 | 14.5 | 0.00 | 0.00 | 0.00 | 47 | 1015.5 |
| 20260905133505 | 34 | 245 | 4.8 | 11.3 | 0.00 | 0.00 | 0.00 | 45 | 1015.4 |
| 20260905132505 | 34 | 254 | 6.4 | 12.9 | 0.00 | 0.00 | 0.00 | 47 | 1015.6 |
| 20260905132005 | 33 | 254 | 6.4 | 17.7 | 0.00 | 0.00 | 0.00 | 47 | 1015.7 |
| 20260905131006 | 34 | 230 | 4.8 | 12.9 | 0.00 | 0.00 | 0.00 | 47 | 1015.7 |
| 20260905130505 | 33 | 242 | 4.8 | 12.9 | 0.00 | 0.00 | 0.00 | 48 | 1015.9 |
| 20260905130005 | 33 | 246 | 4.8 | 9.7 | 0.00 | 0.00 | 0.00 | 48 | 1015.9 |
| 20260905125006 | 33 | 253 | 6.4 | 11.3 | 0.00 | 0.00 | 0.00 | 48 | 1016.0 |
| 20260905124505 | 33 | 252 | 6.4 | 12.9 | 0.00 | 0.00 | 0.00 | 47 | 1016.1 |
| 20260905124005 | 33 | 247 | 6.4 | 14.5 | 0.00 | 0.00 | 0.00 | 49 | 1016.2 |
| 20260905123505 | 33 | 249 | 6.4 | 14.5 | 0.00 | 0.00 | 0.00 | 48 | 1016.3 |
| 20260905123005 | 33 | 255 | 8.0 | 14.5 | 0.00 | 0.00 | 0.00 | 49 | 1016.3 |
| 20260905122505 | 33 | 248 | 8.0 | 14.5 | 0.00 | 0.00 | 0.00 | 47 | 1016.2 |
| 20260905122006 | 33 | 244 | 6.4 | 14.5 | 0.00 | 0.00 | 0.00 | 47 | 1016.2 |
| 20260905121505 | 33 | 245 | 6.4 | 14.5 | 0.00 | 0.00 | 0.00 | 47 | 1016.3 |
| 20260905121005 | 33 | 240 | 4.8 | 12.9 | 0.00 | 0.00 | 0.00 | 50 | 1016.3 |
| 20260905120505 | 33 | 251 | 4.8 | 9.7 | 0.00 | 0.00 | 0.00 | 48 | 1016.5 |
| 20260905120005 | 33 | 258 | 4.8 | 11.3 | 0.00 | 0.00 | 0.00 | 48 | 1016.5 |
| 20260905115505 | 33 | 262 | 4.8 | 14.5 | 0.00 | 0.00 | 0.00 | 49 | 1016.6 |
| 20260905115006 | 33 | 253 | 4.8 | 14.5 | 0.00 | 0.00 | 0.00 | 49 | 1016.5 |
| 20260905114505 | 33 | 238 | 6.4 | 14.5 | 0.00 | 0.00 | 0.00 | 49 | 1016.6 |
| 20260905114005 | 32 | 241 | 6.4 | 14.5 | 0.00 | 0.00 | 0.00 | 46 | 1016.6 |
| 20260905113005 | 32 | 253 | 6.4 | 16.1 | 0.00 | 0.00 | 0.00 | 49 | 1016.6 |
| 20260905112505 | 32 | 253 | 6.4 | 14.5 | 0.00 | 0.00 | 0.00 | 50 | 1016.5 |
| 20260905112005 | 32 | 261 | 4.8 | 12.9 | 0.00 | 0.00 | 0.00 | 49 | 1016.5 |
| 20260905111505 | 32 | 255 | 4.8 | 16.1 | 0.00 | 0.00 | 0.00 | 52 | 1016.5 |
| 20260905111006 | 32 | 251 | 6.4 | 16.1 | 0.00 | 0.00 | 0.00 | 50 | 1016.5 |
| 20260905110506 | 31 | 254 | 6.4 | 16.1 | 0.00 | 0.00 | 0.00 | 51 | 1016.5 |
| 20260905110005 | 31 | 260 | 6.4 | 14.5 | 0.00 | 0.00 | 0.00 | 51 | 1016.6 |
| 20260905105505 | 32 | 260 | 6.4 | 14.5 | 0.00 | 0.00 | 0.00 | 49 | 1016.6 |
| 20260905105005 | 32 | 252 | 4.8 | 14.5 | 0.00 | 0.00 | 0.00 | 52 | 1016.7 |
| 20260905104505 | 31 | 249 | 6.4 | 16.1 | 0.00 | 0.00 | 0.00 | 53 | 1016.8 |